sensor_id;sensor_type;location;lat;lon;timestamp;temperature;humidity
6439;DHT22;3252;52.540;13.290;2023-03-01T00:01:57;-1.00;99.90
6439;DHT22;3252;52.540;13.290;2023-03-01T00:04:00;-1.00;99.90
6439;DHT22;3252;52.540;13.290;2023-03-01T00:06:03;-1.00;99.90
6439;DHT22;3252;52.540;13.290;2023-03-01T00:08:06;-1.00;99.90
6439;DHT22;3252;52.540;13.290;2023-03-01T00:10:09;-1.00;99.90
6439;DHT22;3252;52.540;13.290;2023-03-01T00:12:15;-1.00;99.90
6439;DHT22;3252;52.540;13.290;2023-03-01T00:14:21;-1.00;99.90
6439;DHT22;3252;52.540;13.290;2023-03-01T00:16:26;-1.00;99.90
6439;DHT22;3252;52.540;13.290;2023-03-01T00:18:31;-1.00;99.90
6439;DHT22;3252;52.540;13.290;2023-03-01T00:20:34;-1.00;99.90
6439;DHT22;3252;52.540;13.290;2023-03-01T00:22:36;-1.10;99.90
6439;DHT22;3252;52.540;13.290;2023-03-01T00:24:38;-1.10;99.90
6439;DHT22;3252;52.540;13.290;2023-03-01T00:26:41;-1.20;99.90
6439;DHT22;3252;52.540;13.290;2023-03-01T00:28:43;-1.20;99.90
6439;DHT22;3252;52.540;13.290;2023-03-01T00:30:46;-1.20;99.90
6439;DHT22;3252;52.540;13.290;2023-03-01T00:32:48;-1.20;99.90
6439;DHT22;3252;52.540;13.290;2023-03-01T00:34:53;-1.30;99.90
6439;DHT22;3252;52.540;13.290;2023-03-01T00:36:56;-1.30;99.90
6439;DHT22;3252;52.540;13.290;2023-03-01T00:39:09;-1.30;99.90
6439;DHT22;3252;52.540;13.290;2023-03-01T00:41:17;-1.30;99.90
6439;DHT22;3252;52.540;13.290;2023-03-01T00:43:19;-1.30;99.90
6439;DHT22;3252;52.540;13.290;2023-03-01T00:45:22;-1.40;99.90
6439;DHT22;3252;52.540;13.290;2023-03-01T00:47:25;-1.40;99.90
6439;DHT22;3252;52.540;13.290;2023-03-01T00:49:27;-1.40;99.90
6439;DHT22;3252;52.540;13.290;2023-03-01T00:51:35;-1.40;99.90
6439;DHT22;3252;52.540;13.290;2023-03-01T00:53:38;-1.40;99.90
6439;DHT22;3252;52.540;13.290;2023-03-01T00:55:40;-1.40;99.90
6439;DHT22;3252;52.540;13.290;2023-03-01T00:57:42;-1.50;99.90
6439;DHT22;3252;52.540;13.290;2023-03-01T00:59:45;-1.50;99.90
6439;DHT22;3252;52.540;13.290;2023-03-01T01:01:49;-1.50;99.90
6439;DHT22;3252;52.540;13.290;2023-03-01T01:03:54;-1.50;99.90
6439;DHT22;3252;52.540;13.290;2023-03-01T01:05:56;-1.60;99.90
6439;DHT22;3252;52.540;13.290;2023-03-01T01:08:00;-1.60;99.90
6439;DHT22;3252;52.540;13.290;2023-03-01T01:10:02;-1.70;99.90
6439;DHT22;3252;52.540;13.290;2023-03-01T01:12:05;-1.70;99.90
6439;DHT22;3252;52.540;13.290;2023-03-01T01:14:08;-1.70;99.90
6439;DHT22;3252;52.540;13.290;2023-03-01T01:16:11;-1.70;99.90
6439;DHT22;3252;52.540;13.290;2023-03-01T01:18:14;-1.70;99.90
6439;DHT22;3252;52.540;13.290;2023-03-01T01:20:16;-1.70;99.90
6439;DHT22;3252;52.540;13.290;2023-03-01T01:22:19;-1.60;99.90
6439;DHT22;3252;52.540;13.290;2023-03-01T01:24:23;-1.60;99.90
6439;DHT22;3252;52.540;13.290;2023-03-01T01:26:27;-1.70;99.90
6439;DHT22;3252;52.540;13.290;2023-03-01T01:28:30;-1.70;99.90
6439;DHT22;3252;52.540;13.290;2023-03-01T01:30:33;-1.80;99.90
6439;DHT22;3252;52.540;13.290;2023-03-01T01:32:35;-1.70;99.90
6439;DHT22;3252;52.540;13.290;2023-03-01T01:34:40;-1.70;99.90
6439;DHT22;3252;52.540;13.290;2023-03-01T01:36:43;-1.70;99.90
6439;DHT22;3252;52.540;13.290;2023-03-01T01:38:45;-1.70;99.90
6439;DHT22;3252;52.540;13.290;2023-03-01T01:40:50;-1.70;99.90
6439;DHT22;3252;52.540;13.290;2023-03-01T01:42:52;-1.60;99.90
6439;DHT22;3252;52.540;13.290;2023-03-01T01:45:27;-1.60;99.90
6439;DHT22;3252;52.540;13.290;2023-03-01T01:47:29;-1.60;99.90
6439;DHT22;3252;52.540;13.290;2023-03-01T01:49:36;-1.60;99.90
6439;DHT22;3252;52.540;13.290;2023-03-01T01:51:41;-1.60;99.90
6439;DHT22;3252;52.540;13.290;2023-03-01T01:53:47;-1.60;99.90
6439;DHT22;3252;52.540;13.290;2023-03-01T01:55:58;-1.60;99.90
6439;DHT22;3252;52.540;13.290;2023-03-01T01:58:04;-1.60;99.90
6439;DHT22;3252;52.540;13.290;2023-03-01T02:00:14;-1.60;99.90
6439;DHT22;3252;52.540;13.290;2023-03-01T02:02:18;-1.60;99.90
6439;DHT22;3252;52.540;13.290;2023-03-01T02:04:21;-1.70;99.90
6439;DHT22;3252;52.540;13.290;2023-03-01T02:06:28;-1.60;99.90
6439;DHT22;3252;52.540;13.290;2023-03-01T02:08:34;-1.60;99.90
6439;DHT22;3252;52.540;13.290;2023-03-01T02:10:38;-1.60;99.90
6439;DHT22;3252;52.540;13.290;2023-03-01T02:12:42;-1.60;99.90
6439;DHT22;3252;52.540;13.290;2023-03-01T02:14:45;-1.60;99.90
6439;DHT22;3252;52.540;13.290;2023-03-01T02:16:47;-1.60;99.90
6439;DHT22;3252;52.540;13.290;2023-03-01T02:18:51;-1.60;99.90
6439;DHT22;3252;52.540;13.290;2023-03-01T02:21:08;-1.60;99.90
6439;DHT22;3252;52.540;13.290;2023-03-01T02:23:14;-1.60;99.90
6439;DHT22;3252;52.540;13.290;2023-03-01T02:25:33;-1.60;99.90
6439;DHT22;3252;52.540;13.290;2023-03-01T02:27:51;-1.60;99.90
6439;DHT22;3252;52.540;13.290;2023-03-01T02:30:22;-1.60;99.90
6439;DHT22;3252;52.540;13.290;2023-03-01T02:32:25;-1.60;99.90
6439;DHT22;3252;52.540;13.290;2023-03-01T02:34:27;-1.60;99.90
6439;DHT22;3252;52.540;13.290;2023-03-01T02:36:35;-1.60;99.90
6439;DHT22;3252;52.540;13.290;2023-03-01T02:38:37;-1.50;99.90
6439;DHT22;3252;52.540;13.290;2023-03-01T02:40:41;-1.50;99.90
6439;DHT22;3252;52.540;13.290;2023-03-01T02:42:51;-1.60;99.90
6439;DHT22;3252;52.540;13.290;2023-03-01T02:44:54;-1.70;99.90
6439;DHT22;3252;52.540;13.290;2023-03-01T02:47:01;-1.70;99.90
6439;DHT22;3252;52.540;13.290;2023-03-01T02:49:18;-1.70;99.90
6439;DHT22;3252;52.540;13.290;2023-03-01T02:51:47;-1.80;99.90
6439;DHT22;3252;52.540;13.290;2023-03-01T02:53:59;-1.70;99.90
6439;DHT22;3252;52.540;13.290;2023-03-01T02:56:07;-1.70;99.90
6439;DHT22;3252;52.540;13.290;2023-03-01T02:58:14;-1.70;99.90
6439;DHT22;3252;52.540;13.290;2023-03-01T03:00:19;-1.70;99.90
6439;DHT22;3252;52.540;13.290;2023-03-01T03:02:25;-1.70;99.90
6439;DHT22;3252;52.540;13.290;2023-03-01T03:04:42;-1.70;99.90
6439;DHT22;3252;52.540;13.290;2023-03-01T03:06:44;-1.70;99.90
6439;DHT22;3252;52.540;13.290;2023-03-01T03:08:47;-1.80;99.90
6439;DHT22;3252;52.540;13.290;2023-03-01T03:10:54;-1.80;99.90
6439;DHT22;3252;52.540;13.290;2023-03-01T03:12:59;-1.80;99.90
6439;DHT22;3252;52.540;13.290;2023-03-01T03:15:02;-1.70;99.90
6439;DHT22;3252;52.540;13.290;2023-03-01T03:17:09;-1.80;99.90
6439;DHT22;3252;52.540;13.290;2023-03-01T03:19:13;-1.80;99.90
6439;DHT22;3252;52.540;13.290;2023-03-01T03:21:17;-1.80;99.90
6439;DHT22;3252;52.540;13.290;2023-03-01T03:23:20;-1.80;99.90
6439;DHT22;3252;52.540;13.290;2023-03-01T03:25:23;-1.90;99.90
6439;DHT22;3252;52.540;13.290;2023-03-01T03:27:25;-1.90;99.90
6439;DHT22;3252;52.540;13.290;2023-03-01T03:29:27;-2.00;99.90
6439;DHT22;3252;52.540;13.290;2023-03-01T03:31:30;-2.00;99.90
6439;DHT22;3252;52.540;13.290;2023-03-01T03:33:32;-2.00;99.90
6439;DHT22;3252;52.540;13.290;2023-03-01T03:35:40;-2.10;99.90
6439;DHT22;3252;52.540;13.290;2023-03-01T03:37:42;-2.10;99.90
6439;DHT22;3252;52.540;13.290;2023-03-01T03:40:03;-2.10;99.90
6439;DHT22;3252;52.540;13.290;2023-03-01T03:42:16;-2.10;99.90
6439;DHT22;3252;52.540;13.290;2023-03-01T03:44:18;-2.20;99.90
6439;DHT22;3252;52.540;13.290;2023-03-01T03:46:20;-2.20;99.90
6439;DHT22;3252;52.540;13.290;2023-03-01T03:48:23;-2.20;99.90
6439;DHT22;3252;52.540;13.290;2023-03-01T03:50:26;-2.20;99.90
6439;DHT22;3252;52.540;13.290;2023-03-01T03:52:30;-2.20;99.90
6439;DHT22;3252;52.540;13.290;2023-03-01T03:54:36;-2.30;99.90
6439;DHT22;3252;52.540;13.290;2023-03-01T03:56:39;-2.30;99.90
6439;DHT22;3252;52.540;13.290;2023-03-01T03:58:42;-2.30;99.90
6439;DHT22;3252;52.540;13.290;2023-03-01T04:00:49;-2.30;99.90
6439;DHT22;3252;52.540;13.290;2023-03-01T04:02:53;-2.40;99.90
6439;DHT22;3252;52.540;13.290;2023-03-01T04:04:57;-2.40;99.90
6439;DHT22;3252;52.540;13.290;2023-03-01T04:06:59;-2.40;99.90
6439;DHT22;3252;52.540;13.290;2023-03-01T04:09:03;-2.40;99.90
6439;DHT22;3252;52.540;13.290;2023-03-01T04:11:05;-2.50;99.90
6439;DHT22;3252;52.540;13.290;2023-03-01T04:13:22;-2.50;99.90
6439;DHT22;3252;52.540;13.290;2023-03-01T04:15:26;-2.50;99.90
6439;DHT22;3252;52.540;13.290;2023-03-01T04:17:29;-2.60;99.90
6439;DHT22;3252;52.540;13.290;2023-03-01T04:19:32;-2.60;99.90
6439;DHT22;3252;52.540;13.290;2023-03-01T04:21:38;-2.60;99.90
6439;DHT22;3252;52.540;13.290;2023-03-01T04:23:41;-2.60;99.90
6439;DHT22;3252;52.540;13.290;2023-03-01T04:25:48;-2.60;99.90
6439;DHT22;3252;52.540;13.290;2023-03-01T04:27:56;-2.60;99.90
6439;DHT22;3252;52.540;13.290;2023-03-01T04:29:58;-2.50;99.90
6439;DHT22;3252;52.540;13.290;2023-03-01T04:32:01;-2.60;99.90
6439;DHT22;3252;52.540;13.290;2023-03-01T04:34:04;-2.50;99.90
6439;DHT22;3252;52.540;13.290;2023-03-01T04:36:07;-2.50;99.90
6439;DHT22;3252;52.540;13.290;2023-03-01T04:38:10;-2.60;99.90
6439;DHT22;3252;52.540;13.290;2023-03-01T04:40:13;-2.60;99.90
6439;DHT22;3252;52.540;13.290;2023-03-01T04:42:19;-2.60;99.90
6439;DHT22;3252;52.540;13.290;2023-03-01T04:44:21;-2.60;99.90
6439;DHT22;3252;52.540;13.290;2023-03-01T04:46:23;-2.60;99.90
6439;DHT22;3252;52.540;13.290;2023-03-01T04:48:26;-2.60;99.90
6439;DHT22;3252;52.540;13.290;2023-03-01T04:50:28;-2.60;99.90
6439;DHT22;3252;52.540;13.290;2023-03-01T04:52:31;-2.60;99.90
6439;DHT22;3252;52.540;13.290;2023-03-01T04:54:34;-2.70;99.90
6439;DHT22;3252;52.540;13.290;2023-03-01T04:56:37;-2.70;99.90
6439;DHT22;3252;52.540;13.290;2023-03-01T04:58:41;-2.70;99.90
6439;DHT22;3252;52.540;13.290;2023-03-01T05:00:43;-2.70;99.90
6439;DHT22;3252;52.540;13.290;2023-03-01T05:02:47;-2.70;99.90
6439;DHT22;3252;52.540;13.290;2023-03-01T05:04:53;-2.70;99.90
6439;DHT22;3252;52.540;13.290;2023-03-01T05:06:58;-2.70;99.90
6439;DHT22;3252;52.540;13.290;2023-03-01T05:09:01;-2.60;99.90
6439;DHT22;3252;52.540;13.290;2023-03-01T05:11:04;-2.70;99.90
6439;DHT22;3252;52.540;13.290;2023-03-01T05:13:15;-2.70;99.90
6439;DHT22;3252;52.540;13.290;2023-03-01T05:15:23;-2.70;99.90
6439;DHT22;3252;52.540;13.290;2023-03-01T05:17:26;-2.80;99.90
6439;DHT22;3252;52.540;13.290;2023-03-01T05:19:28;-2.80;99.90
6439;DHT22;3252;52.540;13.290;2023-03-01T05:21:31;-2.80;99.90
6439;DHT22;3252;52.540;13.290;2023-03-01T05:23:34;-2.80;99.90
6439;DHT22;3252;52.540;13.290;2023-03-01T05:25:37;-2.80;99.90
6439;DHT22;3252;52.540;13.290;2023-03-01T05:27:40;-3.00;99.90
6439;DHT22;3252;52.540;13.290;2023-03-01T05:29:43;-3.00;99.90
6439;DHT22;3252;52.540;13.290;2023-03-01T05:31:47;-3.00;99.90
6439;DHT22;3252;52.540;13.290;2023-03-01T05:33:49;-3.00;99.90
6439;DHT22;3252;52.540;13.290;2023-03-01T05:35:51;-3.00;99.90
6439;DHT22;3252;52.540;13.290;2023-03-01T05:37:54;-3.00;99.90
6439;DHT22;3252;52.540;13.290;2023-03-01T05:39:57;-2.90;99.90
6439;DHT22;3252;52.540;13.290;2023-03-01T05:42:00;-2.90;99.90
6439;DHT22;3252;52.540;13.290;2023-03-01T05:44:03;-2.90;99.90
6439;DHT22;3252;52.540;13.290;2023-03-01T05:46:10;-2.80;99.90
6439;DHT22;3252;52.540;13.290;2023-03-01T05:48:15;-2.80;99.90
6439;DHT22;3252;52.540;13.290;2023-03-01T05:50:19;-2.70;99.90
6439;DHT22;3252;52.540;13.290;2023-03-01T05:52:21;-2.70;99.90
6439;DHT22;3252;52.540;13.290;2023-03-01T05:54:24;-2.70;99.90
6439;DHT22;3252;52.540;13.290;2023-03-01T05:56:26;-2.70;99.90
6439;DHT22;3252;52.540;13.290;2023-03-01T05:58:28;-2.70;99.90
6439;DHT22;3252;52.540;13.290;2023-03-01T06:00:32;-2.70;99.90
6439;DHT22;3252;52.540;13.290;2023-03-01T06:02:34;-2.70;99.90
6439;DHT22;3252;52.540;13.290;2023-03-01T06:04:38;-2.70;99.90
6439;DHT22;3252;52.540;13.290;2023-03-01T06:06:40;-2.70;99.90
6439;DHT22;3252;52.540;13.290;2023-03-01T06:08:42;-2.70;99.90
6439;DHT22;3252;52.540;13.290;2023-03-01T06:10:46;-2.70;99.90
6439;DHT22;3252;52.540;13.290;2023-03-01T06:12:48;-2.70;99.90
6439;DHT22;3252;52.540;13.290;2023-03-01T06:14:51;-2.70;99.90
6439;DHT22;3252;52.540;13.290;2023-03-01T06:16:53;-2.70;99.90
6439;DHT22;3252;52.540;13.290;2023-03-01T06:18:55;-2.70;99.90
6439;DHT22;3252;52.540;13.290;2023-03-01T06:21:00;-2.70;99.90
6439;DHT22;3252;52.540;13.290;2023-03-01T06:23:02;-2.60;99.90
6439;DHT22;3252;52.540;13.290;2023-03-01T06:25:06;-2.60;99.90
6439;DHT22;3252;52.540;13.290;2023-03-01T06:27:09;-2.60;99.90
6439;DHT22;3252;52.540;13.290;2023-03-01T06:29:25;-2.60;99.90
6439;DHT22;3252;52.540;13.290;2023-03-01T06:31:27;-2.60;99.90
6439;DHT22;3252;52.540;13.290;2023-03-01T06:33:30;-2.50;99.90
6439;DHT22;3252;52.540;13.290;2023-03-01T06:35:32;-2.50;99.90
6439;DHT22;3252;52.540;13.290;2023-03-01T06:37:36;-2.40;99.90
6439;DHT22;3252;52.540;13.290;2023-03-01T06:39:38;-2.40;99.90
6439;DHT22;3252;52.540;13.290;2023-03-01T06:41:41;-2.40;99.90
6439;DHT22;3252;52.540;13.290;2023-03-01T06:43:43;-2.30;99.90
6439;DHT22;3252;52.540;13.290;2023-03-01T06:45:45;-2.40;99.90
6439;DHT22;3252;52.540;13.290;2023-03-01T06:47:47;-2.30;99.90
6439;DHT22;3252;52.540;13.290;2023-03-01T06:49:50;-2.30;99.90
6439;DHT22;3252;52.540;13.290;2023-03-01T06:51:55;-2.20;99.90
6439;DHT22;3252;52.540;13.290;2023-03-01T06:54:04;-2.20;99.90
6439;DHT22;3252;52.540;13.290;2023-03-01T06:56:06;-2.10;99.90
6439;DHT22;3252;52.540;13.290;2023-03-01T06:58:09;-2.00;99.90
6439;DHT22;3252;52.540;13.290;2023-03-01T07:00:13;-1.90;99.90
6439;DHT22;3252;52.540;13.290;2023-03-01T07:02:15;-1.80;99.90
6439;DHT22;3252;52.540;13.290;2023-03-01T07:04:18;-1.70;99.90
6439;DHT22;3252;52.540;13.290;2023-03-01T07:06:20;-1.60;99.90
6439;DHT22;3252;52.540;13.290;2023-03-01T07:08:23;-1.50;99.90
6439;DHT22;3252;52.540;13.290;2023-03-01T07:10:27;-1.30;99.90
6439;DHT22;3252;52.540;13.290;2023-03-01T07:12:29;-1.30;99.90
6439;DHT22;3252;52.540;13.290;2023-03-01T07:14:31;-1.20;99.90
6439;DHT22;3252;52.540;13.290;2023-03-01T07:16:33;-1.20;99.90
6439;DHT22;3252;52.540;13.290;2023-03-01T07:18:36;-1.10;99.90
6439;DHT22;3252;52.540;13.290;2023-03-01T07:20:38;-1.10;99.90
6439;DHT22;3252;52.540;13.290;2023-03-01T07:22:40;-1.10;99.90
6439;DHT22;3252;52.540;13.290;2023-03-01T07:24:43;-1.00;99.90
6439;DHT22;3252;52.540;13.290;2023-03-01T07:26:49;-1.00;99.90
6439;DHT22;3252;52.540;13.290;2023-03-01T07:28:51;-0.90;99.90
6439;DHT22;3252;52.540;13.290;2023-03-01T07:30:54;-0.80;99.90
6439;DHT22;3252;52.540;13.290;2023-03-01T07:32:57;-0.60;99.90
6439;DHT22;3252;52.540;13.290;2023-03-01T07:34:59;-0.50;99.90
6439;DHT22;3252;52.540;13.290;2023-03-01T07:37:01;-0.50;99.90
6439;DHT22;3252;52.540;13.290;2023-03-01T07:39:03;-0.30;99.90
6439;DHT22;3252;52.540;13.290;2023-03-01T07:41:05;-0.20;99.90
6439;DHT22;3252;52.540;13.290;2023-03-01T07:43:09;-0.10;99.90
6439;DHT22;3252;52.540;13.290;2023-03-01T07:45:11;0.10;99.90
6439;DHT22;3252;52.540;13.290;2023-03-01T07:47:14;0.10;99.90
6439;DHT22;3252;52.540;13.290;2023-03-01T07:49:16;0.10;99.90
6439;DHT22;3252;52.540;13.290;2023-03-01T07:51:18;0.40;99.90
6439;DHT22;3252;52.540;13.290;2023-03-01T07:53:21;0.60;99.90
6439;DHT22;3252;52.540;13.290;2023-03-01T07:55:24;0.70;99.90
6439;DHT22;3252;52.540;13.290;2023-03-01T07:57:27;0.80;99.90
6439;DHT22;3252;52.540;13.290;2023-03-01T07:59:30;1.00;99.90
6439;DHT22;3252;52.540;13.290;2023-03-01T08:01:33;1.40;99.90
6439;DHT22;3252;52.540;13.290;2023-03-01T08:03:36;1.90;99.90
6439;DHT22;3252;52.540;13.290;2023-03-01T08:05:38;2.20;99.90
6439;DHT22;3252;52.540;13.290;2023-03-01T08:07:41;2.30;99.90
6439;DHT22;3252;52.540;13.290;2023-03-01T08:09:43;2.30;99.90
6439;DHT22;3252;52.540;13.290;2023-03-01T08:11:46;2.40;99.90
6439;DHT22;3252;52.540;13.290;2023-03-01T08:13:48;2.50;99.90
6439;DHT22;3252;52.540;13.290;2023-03-01T08:15:52;2.60;99.90
6439;DHT22;3252;52.540;13.290;2023-03-01T08:17:54;2.70;99.90
6439;DHT22;3252;52.540;13.290;2023-03-01T08:19:57;3.10;99.90
6439;DHT22;3252;52.540;13.290;2023-03-01T08:21:59;3.30;99.70
6439;DHT22;3252;52.540;13.290;2023-03-01T08:24:02;3.50;98.50
6439;DHT22;3252;52.540;13.290;2023-03-01T08:26:06;4.00;97.80
6439;DHT22;3252;52.540;13.290;2023-03-01T08:28:09;4.70;96.60
6439;DHT22;3252;52.540;13.290;2023-03-01T08:30:12;5.10;95.80
6439;DHT22;3252;52.540;13.290;2023-03-01T08:32:16;5.20;95.30
6439;DHT22;3252;52.540;13.290;2023-03-01T08:34:18;5.40;94.20
6439;DHT22;3252;52.540;13.290;2023-03-01T08:36:21;5.80;90.80
6439;DHT22;3252;52.540;13.290;2023-03-01T08:38:24;6.30;83.90
6439;DHT22;3252;52.540;13.290;2023-03-01T08:40:26;6.90;79.40
6439;DHT22;3252;52.540;13.290;2023-03-01T08:42:28;7.70;78.10
6439;DHT22;3252;52.540;13.290;2023-03-01T08:44:30;8.20;68.60
6439;DHT22;3252;52.540;13.290;2023-03-01T08:46:34;8.10;65.80
6439;DHT22;3252;52.540;13.290;2023-03-01T08:48:38;8.20;63.30
6439;DHT22;3252;52.540;13.290;2023-03-01T08:50:41;8.60;57.80
6439;DHT22;3252;52.540;13.290;2023-03-01T08:52:43;8.80;58.00
6439;DHT22;3252;52.540;13.290;2023-03-01T08:54:47;10.10;54.40
6439;DHT22;3252;52.540;13.290;2023-03-01T08:56:50;10.70;49.40
6439;DHT22;3252;52.540;13.290;2023-03-01T08:58:52;11.10;48.50
6439;DHT22;3252;52.540;13.290;2023-03-01T09:00:54;11.30;46.30
6439;DHT22;3252;52.540;13.290;2023-03-01T09:02:57;11.10;46.00
6439;DHT22;3252;52.540;13.290;2023-03-01T09:05:00;11.00;46.30
6439;DHT22;3252;52.540;13.290;2023-03-01T09:07:03;11.10;47.00
6439;DHT22;3252;52.540;13.290;2023-03-01T09:09:06;11.30;47.00
6439;DHT22;3252;52.540;13.290;2023-03-01T09:11:13;11.40;45.30
6439;DHT22;3252;52.540;13.290;2023-03-01T09:13:17;11.50;44.90
6439;DHT22;3252;52.540;13.290;2023-03-01T09:15:20;11.00;45.30
6439;DHT22;3252;52.540;13.290;2023-03-01T09:17:23;10.40;45.60
6439;DHT22;3252;52.540;13.290;2023-03-01T09:19:25;11.30;45.20
6439;DHT22;3252;52.540;13.290;2023-03-01T09:21:28;13.00;43.00
6439;DHT22;3252;52.540;13.290;2023-03-01T09:23:30;14.60;40.20
6439;DHT22;3252;52.540;13.290;2023-03-01T09:25:34;15.40;37.90
6439;DHT22;3252;52.540;13.290;2023-03-01T09:27:37;16.10;37.60
6439;DHT22;3252;52.540;13.290;2023-03-01T09:29:40;17.10;35.90
6439;DHT22;3252;52.540;13.290;2023-03-01T09:31:43;17.00;34.90
6439;DHT22;3252;52.540;13.290;2023-03-01T09:33:46;16.60;34.90
6439;DHT22;3252;52.540;13.290;2023-03-01T09:35:48;15.40;34.80
6439;DHT22;3252;52.540;13.290;2023-03-01T09:37:52;14.00;36.20
6439;DHT22;3252;52.540;13.290;2023-03-01T09:39:54;12.20;37.20
6439;DHT22;3252;52.540;13.290;2023-03-01T09:42:00;11.70;39.20
6439;DHT22;3252;52.540;13.290;2023-03-01T09:44:10;11.10;41.90
6439;DHT22;3252;52.540;13.290;2023-03-01T09:46:14;10.30;42.20
6439;DHT22;3252;52.540;13.290;2023-03-01T09:48:20;9.70;44.80
6439;DHT22;3252;52.540;13.290;2023-03-01T09:50:34;9.10;46.10
6439;DHT22;3252;52.540;13.290;2023-03-01T09:52:41;8.80;48.40
6439;DHT22;3252;52.540;13.290;2023-03-01T09:54:46;8.40;47.80
6439;DHT22;3252;52.540;13.290;2023-03-01T09:56:57;8.20;50.60
6439;DHT22;3252;52.540;13.290;2023-03-01T09:59:11;8.10;53.30
6439;DHT22;3252;52.540;13.290;2023-03-01T10:01:28;7.90;53.80
6439;DHT22;3252;52.540;13.290;2023-03-01T10:03:37;7.70;55.60
6439;DHT22;3252;52.540;13.290;2023-03-01T10:05:47;7.40;56.60
6439;DHT22;3252;52.540;13.290;2023-03-01T10:07:57;7.10;54.30
6439;DHT22;3252;52.540;13.290;2023-03-01T10:10:07;6.90;54.50
6439;DHT22;3252;52.540;13.290;2023-03-01T10:12:12;6.70;58.10
6439;DHT22;3252;52.540;13.290;2023-03-01T10:14:22;6.40;57.20
6439;DHT22;3252;52.540;13.290;2023-03-01T10:16:40;6.40;59.20
6439;DHT22;3252;52.540;13.290;2023-03-01T10:18:51;6.50;62.90
6439;DHT22;3252;52.540;13.290;2023-03-01T10:20:58;6.60;64.20
6439;DHT22;3252;52.540;13.290;2023-03-01T10:23:01;6.50;64.80
6439;DHT22;3252;52.540;13.290;2023-03-01T10:25:06;6.30;60.20
6439;DHT22;3252;52.540;13.290;2023-03-01T10:27:11;6.30;59.50
6439;DHT22;3252;52.540;13.290;2023-03-01T10:29:16;6.20;64.00
6439;DHT22;3252;52.540;13.290;2023-03-01T10:31:22;6.20;67.20
6439;DHT22;3252;52.540;13.290;2023-03-01T10:33:32;6.30;66.90
6439;DHT22;3252;52.540;13.290;2023-03-01T10:35:34;6.30;62.90
6439;DHT22;3252;52.540;13.290;2023-03-01T10:37:56;6.60;59.60
6439;DHT22;3252;52.540;13.290;2023-03-01T10:40:01;7.70;55.30
6439;DHT22;3252;52.540;13.290;2023-03-01T10:42:21;8.70;53.80
6439;DHT22;3252;52.540;13.290;2023-03-01T10:44:37;10.50;48.60
6439;DHT22;3252;52.540;13.290;2023-03-01T10:46:39;12.30;42.40
6439;DHT22;3252;52.540;13.290;2023-03-01T10:48:41;13.40;40.60
6439;DHT22;3252;52.540;13.290;2023-03-01T10:50:45;14.40;39.00
6439;DHT22;3252;52.540;13.290;2023-03-01T10:52:57;15.90;36.60
6439;DHT22;3252;52.540;13.290;2023-03-01T10:55:04;17.60;33.90
6439;DHT22;3252;52.540;13.290;2023-03-01T10:57:29;20.10;31.60
6439;DHT22;3252;52.540;13.290;2023-03-01T10:59:33;21.70;30.00
6439;DHT22;3252;52.540;13.290;2023-03-01T11:01:36;23.10;28.40
6439;DHT22;3252;52.540;13.290;2023-03-01T11:03:38;22.30;27.20
6439;DHT22;3252;52.540;13.290;2023-03-01T11:05:52;20.90;28.10
6439;DHT22;3252;52.540;13.290;2023-03-01T11:07:56;19.10;27.20
6439;DHT22;3252;52.540;13.290;2023-03-01T11:09:59;19.10;27.50
6439;DHT22;3252;52.540;13.290;2023-03-01T11:12:01;20.40;27.70
6439;DHT22;3252;52.540;13.290;2023-03-01T11:14:07;21.00;27.20
6439;DHT22;3252;52.540;13.290;2023-03-01T11:16:14;20.10;27.60
6439;DHT22;3252;52.540;13.290;2023-03-01T11:18:20;19.80;28.60
6439;DHT22;3252;52.540;13.290;2023-03-01T11:20:29;21.90;27.50
6439;DHT22;3252;52.540;13.290;2023-03-01T11:22:34;19.30;25.00
6439;DHT22;3252;52.540;13.290;2023-03-01T11:24:40;19.30;27.90
6439;DHT22;3252;52.540;13.290;2023-03-01T11:26:47;22.90;27.40
6439;DHT22;3252;52.540;13.290;2023-03-01T11:28:58;24.80;25.30
6439;DHT22;3252;52.540;13.290;2023-03-01T11:31:05;26.50;25.10
6439;DHT22;3252;52.540;13.290;2023-03-01T11:33:15;28.10;23.40
6439;DHT22;3252;52.540;13.290;2023-03-01T11:35:21;27.20;22.30
6439;DHT22;3252;52.540;13.290;2023-03-01T11:37:32;25.70;22.90
6439;DHT22;3252;52.540;13.290;2023-03-01T11:39:39;24.20;23.30
6439;DHT22;3252;52.540;13.290;2023-03-01T11:41:45;25.70;23.20
6439;DHT22;3252;52.540;13.290;2023-03-01T11:43:53;26.40;22.30
6439;DHT22;3252;52.540;13.290;2023-03-01T11:48:48;25.50;22.00
6439;DHT22;3252;52.540;13.290;2023-03-01T11:50:54;21.20;23.50
6439;DHT22;3252;52.540;13.290;2023-03-01T11:53:06;21.40;24.30
6439;DHT22;3252;52.540;13.290;2023-03-01T11:55:42;22.00;24.90
6439;DHT22;3252;52.540;13.290;2023-03-01T11:57:58;24.80;24.40
6439;DHT22;3252;52.540;13.290;2023-03-01T12:00:18;26.50;23.00
6439;DHT22;3252;52.540;13.290;2023-03-01T12:05:52;28.00;22.50
6439;DHT22;3252;52.540;13.290;2023-03-01T12:08:06;30.70;21.10
6439;DHT22;3252;52.540;13.290;2023-03-01T12:10:20;31.80;20.50
6439;DHT22;3252;52.540;13.290;2023-03-01T12:12:29;33.20;19.60
6439;DHT22;3252;52.540;13.290;2023-03-01T12:14:50;33.40;18.60
6439;DHT22;3252;52.540;13.290;2023-03-01T12:17:03;32.20;19.00
6439;DHT22;3252;52.540;13.290;2023-03-01T12:19:20;32.00;18.80
6439;DHT22;3252;52.540;13.290;2023-03-01T12:21:40;30.80;18.50
6439;DHT22;3252;52.540;13.290;2023-03-01T12:24:14;30.20;19.10
6439;DHT22;3252;52.540;13.290;2023-03-01T12:26:28;30.20;19.10
6439;DHT22;3252;52.540;13.290;2023-03-01T12:28:56;28.90;19.70
6439;DHT22;3252;52.540;13.290;2023-03-01T12:31:25;28.60;20.00
6439;DHT22;3252;52.540;13.290;2023-03-01T12:33:41;28.80;20.20
6439;DHT22;3252;52.540;13.290;2023-03-01T12:35:58;29.00;20.10
6439;DHT22;3252;52.540;13.290;2023-03-01T12:38:17;28.90;20.00
6439;DHT22;3252;52.540;13.290;2023-03-01T12:40:42;28.70;18.90
6439;DHT22;3252;52.540;13.290;2023-03-01T12:42:50;28.40;19.00
6439;DHT22;3252;52.540;13.290;2023-03-01T12:45:19;27.80;19.00
6439;DHT22;3252;52.540;13.290;2023-03-01T12:47:37;28.60;18.90
6439;DHT22;3252;52.540;13.290;2023-03-01T12:49:44;30.00;18.80
6439;DHT22;3252;52.540;13.290;2023-03-01T12:51:54;30.60;18.20
6439;DHT22;3252;52.540;13.290;2023-03-01T12:54:00;30.10;18.50
6439;DHT22;3252;52.540;13.290;2023-03-01T12:56:07;29.40;18.80
6439;DHT22;3252;52.540;13.290;2023-03-01T12:58:22;28.80;19.20
6439;DHT22;3252;52.540;13.290;2023-03-01T13:00:28;28.70;19.10
6439;DHT22;3252;52.540;13.290;2023-03-01T13:02:35;27.40;18.70
6439;DHT22;3252;52.540;13.290;2023-03-01T13:04:59;25.30;17.80
6439;DHT22;3252;52.540;13.290;2023-03-01T13:07:15;24.90;19.10
6439;DHT22;3252;52.540;13.290;2023-03-01T13:09:24;24.80;19.60
6439;DHT22;3252;52.540;13.290;2023-03-01T13:11:28;24.50;20.40
6439;DHT22;3252;52.540;13.290;2023-03-01T13:13:31;24.90;20.60
6439;DHT22;3252;52.540;13.290;2023-03-01T13:15:35;25.80;20.60
6439;DHT22;3252;52.540;13.290;2023-03-01T13:17:43;27.10;20.50
6439;DHT22;3252;52.540;13.290;2023-03-01T13:19:56;28.30;19.70
6439;DHT22;3252;52.540;13.290;2023-03-01T13:21:58;27.20;20.10
6439;DHT22;3252;52.540;13.290;2023-03-01T13:24:09;25.60;20.30
6439;DHT22;3252;52.540;13.290;2023-03-01T13:26:25;23.70;20.50
6439;DHT22;3252;52.540;13.290;2023-03-01T13:28:48;21.60;20.90
6439;DHT22;3252;52.540;13.290;2023-03-01T13:30:51;19.90;21.80
6439;DHT22;3252;52.540;13.290;2023-03-01T13:35:44;18.00;23.60
6439;DHT22;3252;52.540;13.290;2023-03-01T13:37:46;17.30;24.70
6439;DHT22;3252;52.540;13.290;2023-03-01T13:39:50;16.80;24.70